Aviation Digital Data Service (ADDS)

Output produced by TAFs form (2141 UTC 28 March 2017)
found at http://aviationweather.gov/adds/tafs/
 
KAEG 281748Z 2818/2918 01010KT P6SM SCT020 BKN045 
     FM281930 30012G22KT P6SM VCTS BKN040CB BKN080 
     TEMPO 2820/2823 VRB15G25KT -SHRA BKN035 
     FM282300 33012G22KT P6SM VCSH SCT035 BKN070 
     FM290600 33015G23KT 5SM RA BR BKN019 OVC030